Time;durP1;ratioP1;P1;durP2;ratioP2;P2;SDS_P1;SDS_P2;PMS_P1;PMS_P2;Temp;Humidity;BMP_temperature;BMP_pressure;BME280_temperature;BME280_humidity;BME280_pressure;Samples;Min_cycle;Max_cycle;Signal;HPM_P1;HPM_P2
2022/05/12 00:01:50;;;;;;;9.45;4.57;;;16.20;99.90;;;;;;5059306;28;20201;-69
2022/05/12 00:04:18;;;;;;;8.13;5.00;;;16.10;99.90;;;;;;5068231;28;20214;-69
2022/05/12 00:06:45;;;;;;;8.10;4.43;;;16.10;99.90;;;;;;5059194;28;20664;-69
2022/05/12 00:09:12;;;;;;;11.75;5.07;;;16.00;99.90;;;;;;5072779;28;20230;-69
2022/05/12 00:11:39;;;;;;;11.48;5.55;;;16.10;99.90;;;;;;5071980;28;20201;-69
2022/05/12 00:14:08;;;;;;;11.90;5.28;;;16.20;99.90;;;;;;5065565;28;20557;-69
2022/05/12 00:16:35;;;;;;;12.02;5.05;;;16.10;99.90;;;;;;5055936;28;20208;-69
2022/05/12 00:19:02;;;;;;;11.40;5.07;;;16.00;99.90;;;;;;5071896;28;20226;-70
2022/05/12 00:21:30;;;;;;;11.88;5.35;;;16.00;99.90;;;;;;5072347;28;20195;-69
2022/05/12 00:23:57;;;;;;;10.38;5.25;;;15.90;99.90;;;;;;5071138;28;20212;-68
2022/05/12 00:26:25;;;;;;;9.82;5.35;;;15.70;99.90;;;;;;5073290;28;20198;-68
2022/05/12 00:28:52;;;;;;;11.30;5.50;;;15.50;99.90;;;;;;5066891;28;20636;-68
2022/05/12 00:31:20;;;;;;;10.37;4.87;;;15.60;99.90;;;;;;5063411;28;20641;-69
2022/05/12 00:33:47;;;;;;;11.98;5.88;;;15.70;99.90;;;;;;5072864;28;20202;-76
2022/05/12 00:36:14;;;;;;;13.05;5.70;;;15.60;99.90;;;;;;5073256;28;20228;-75
2022/05/12 00:38:43;;;;;;;13.88;5.25;;;15.50;99.90;;;;;;5070037;28;20227;-75
2022/05/12 00:41:10;;;;;;;11.20;5.32;;;15.50;99.90;;;;;;5060338;28;20203;-75
2022/05/12 00:43:40;;;;;;;13.67;6.03;;;15.60;99.90;;;;;;5072211;28;20213;-75
2022/05/12 00:46:10;;;;;;;9.82;4.80;;;15.60;99.90;;;;;;5071271;28;20195;-75
2022/05/12 00:48:38;;;;;;;10.80;4.70;;;15.60;99.90;;;;;;5071123;28;20687;-75
2022/05/12 00:51:07;;;;;;;8.63;4.67;;;15.50;99.90;;;;;;5059019;28;20209;-75
2022/05/12 00:53:35;;;;;;;10.93;4.87;;;15.20;99.90;;;;;;5072222;28;20206;-75
2022/05/12 00:56:06;;;;;;;10.93;5.33;;;15.30;99.90;;;;;;5072590;28;20198;-75
2022/05/12 00:58:34;;;;;;;13.57;5.07;;;15.30;99.90;;;;;;5071501;28;20221;-75
2022/05/12 01:01:04;;;;;;;12.80;5.17;;;15.00;99.90;;;;;;5057827;28;20206;-75
2022/05/12 01:03:35;;;;;;;12.67;5.43;;;15.10;99.90;;;;;;5072168;28;20213;-75
2022/05/12 01:06:03;;;;;;;11.40;5.17;;;15.10;99.90;;;;;;5071204;28;20498;-75
2022/05/12 01:08:31;;;;;;;9.67;5.43;;;15.20;99.90;;;;;;5071477;28;20209;-74
2022/05/12 01:11:05;;;;;;;11.07;5.63;;;15.10;99.90;;;;;;5063549;28;20207;-75
2022/05/12 01:13:32;;;;;;;10.60;5.00;;;15.10;99.90;;;;;;5071348;28;20202;-75
2022/05/12 01:16:02;;;;;;;10.87;5.00;;;15.00;99.90;;;;;;5065260;28;20194;-75
2022/05/12 01:18:32;;;;;;;8.57;4.87;;;15.10;99.90;;;;;;5072264;28;20248;-75
2022/05/12 01:20:59;;;;;;;10.00;5.37;;;15.10;99.90;;;;;;5068182;28;20576;-75
2022/05/12 01:23:29;;;;;;;9.07;4.60;;;15.00;99.90;;;;;;5071776;28;20568;-75
2022/05/12 01:25:58;;;;;;;7.37;4.83;;;14.90;99.90;;;;;;5071621;28;20213;-75
2022/05/12 01:28:26;;;;;;;7.53;4.10;;;15.10;99.90;;;;;;5065260;28;20205;-74
2022/05/12 01:30:53;;;;;;;8.13;3.97;;;15.00;99.90;;;;;;5051622;28;20207;-75
2022/05/12 01:33:20;;;;;;;6.00;4.10;;;15.10;99.90;;;;;;5067806;28;20199;-74
2022/05/12 01:35:47;;;;;;;7.27;4.00;;;15.10;99.90;;;;;;5072119;28;20217;-75
2022/05/12 01:38:14;;;;;;;5.17;3.73;;;15.10;99.90;;;;;;5071456;28;20210;-75
2022/05/12 01:40:44;;;;;;;3.50;3.07;;;15.10;99.90;;;;;;5053117;28;20721;-74
2022/05/12 01:43:12;;;;;;;8.47;3.70;;;15.00;99.90;;;;;;5064432;28;20244;-75
2022/05/12 01:45:39;;;;;;;10.00;3.77;;;15.10;99.90;;;;;;5051516;28;20276;-74
2022/05/12 01:48:08;;;;;;;10.37;3.40;;;15.00;99.90;;;;;;5063492;28;20567;-75
2022/05/12 01:50:36;;;;;;;4.53;2.80;;;15.00;99.90;;;;;;5071199;28;20636;-75
2022/05/12 01:53:03;;;;;;;6.13;3.50;;;15.00;99.90;;;;;;5071088;28;20198;-74
2022/05/12 01:55:31;;;;;;;8.87;3.87;;;15.00;99.90;;;;;;5072142;28;20520;-75
2022/05/12 01:57:59;;;;;;;6.03;3.50;;;15.00;99.90;;;;;;5071455;28;20213;-74
2022/05/12 02:00:29;;;;;;;6.33;3.40;;;14.90;99.90;;;;;;5054774;28;20455;-75
2022/05/12 02:03:00;;;;;;;7.17;3.70;;;14.90;99.90;;;;;;5061266;28;20212;-74
2022/05/12 02:05:30;;;;;;;4.77;3.37;;;15.00;99.90;;;;;;5070965;28;20215;-75
2022/05/12 02:07:58;;;;;;;9.30;3.73;;;14.90;99.90;;;;;;5063281;28;20209;-75
2022/05/12 02:10:28;;;;;;;4.77;3.27;;;14.90;99.90;;;;;;5052024;28;20680;-74
2022/05/12 02:12:55;;;;;;;5.83;4.10;;;14.90;99.90;;;;;;5057524;28;20210;-75
2022/05/12 02:15:24;;;;;;;10.67;3.80;;;14.90;99.90;;;;;;5052091;28;20213;-74
2022/05/12 02:17:51;;;;;;;9.53;3.70;;;15.00;99.90;;;;;;5059799;28;20198;-74
2022/05/12 02:20:20;;;;;;;6.70;3.40;;;14.90;99.90;;;;;;5070165;28;20225;-74
2022/05/12 02:22:47;;;;;;;6.70;3.30;;;15.00;99.90;;;;;;5070548;28;20198;-74
2022/05/12 02:25:14;;;;;;;5.50;3.07;;;15.00;99.90;;;;;;5071195;28;20661;-74
2022/05/12 02:27:46;;;;;;;6.40;3.50;;;15.00;99.90;;;;;;5071405;28;20190;-74
2022/05/12 02:30:21;;;;;;;6.33;3.23;;;14.90;99.90;;;;;;5054021;28;20207;-74
2022/05/12 02:32:50;;;;;;;6.87;3.20;;;14.90;99.90;;;;;;5060318;28;20551;-74
2022/05/12 02:35:17;;;;;;;5.73;2.70;;;14.70;99.90;;;;;;5059064;28;20587;-74
2022/05/12 02:37:45;;;;;;;3.33;2.33;;;14.50;99.90;;;;;;5059424;28;20195;-74
2022/05/12 02:40:15;;;;;;;3.30;2.03;;;14.50;99.90;;;;;;5070284;28;20576;-74
2022/05/12 02:42:42;;;;;;;4.43;2.17;;;14.30;99.90;;;;;;5070988;28;20781;-74
2022/05/12 02:45:10;;;;;;;4.47;1.50;;;14.20;1.00;;;;;;5058603;28;20209;-74
2022/05/12 02:47:37;;;;;;;3.53;1.20;;;14.00;1.00;;;;;;5059710;28;20201;-74
2022/05/12 02:50:07;;;;;;;2.53;1.50;;;13.80;1.00;;;;;;5074531;28;20671;-74
2022/05/12 02:52:34;;;;;;;4.10;1.60;;;13.70;1.00;;;;;;5074319;28;20589;-74
2022/05/12 02:55:01;;;;;;;2.90;1.50;;;13.60;1.00;;;;;;5060653;28;20573;-74
2022/05/12 02:57:29;;;;;;;2.83;1.17;;;13.60;1.00;;;;;;5057902;28;20202;-74
2022/05/12 02:59:56;;;;;;;7.63;1.70;;;13.50;1.00;;;;;;5061907;28;20227;-74
2022/05/12 03:02:22;;;;;;;2.67;1.60;;;13.30;1.00;;;;;;5056077;28;20209;-74
2022/05/12 03:04:49;;;;;;;1.80;1.70;;;13.20;1.00;;;;;;5073900;28;20563;-74
2022/05/12 03:07:18;;;;;;;4.53;1.57;;;13.20;10.70;;;;;;5073645;28;20202;-74
2022/05/12 03:09:45;;;;;;;4.23;1.80;;;13.00;1.00;;;;;;5053734;28;20206;-74
2022/05/12 03:12:12;;;;;;;4.63;1.60;;;13.00;1.00;;;;;;5054747;28;20207;-74
2022/05/12 03:14:39;;;;;;;1.43;1.23;;;12.90;49.70;;;;;;5065886;28;20195;-74
2022/05/12 03:17:05;;;;;;;1.80;1.50;;;12.90;16.70;;;;;;5074361;28;20202;-74
2022/05/12 03:19:32;;;;;;;1.97;1.30;;;12.80;37.80;;;;;;5073257;28;20218;-74
2022/05/12 03:21:59;;;;;;;2.07;1.30;;;12.80;49.40;;;;;;5074387;28;20194;-74
2022/05/12 03:24:28;;;;;;;1.90;1.70;;;12.70;94.40;;;;;;5065060;28;20391;-74
2022/05/12 03:26:54;;;;;;;5.07;1.30;;;12.70;89.80;;;;;;5065609;28;20202;-74
2022/05/12 03:29:21;;;;;;;2.13;1.23;;;12.60;35.60;;;;;;5064457;28;20567;-74
2022/05/12 03:31:48;;;;;;;3.83;1.60;;;12.60;49.00;;;;;;5063299;28;20202;-74
2022/05/12 03:34:15;;;;;;;2.43;1.13;;;12.50;57.60;;;;;;5066207;28;20725;-74
2022/05/12 03:36:43;;;;;;;4.37;1.43;;;12.50;40.60;;;;;;5062144;28;20229;-74
2022/05/12 03:39:10;;;;;;;2.27;1.20;;;12.60;60.50;;;;;;5073689;28;20210;-74
2022/05/12 03:41:38;;;;;;;6.13;1.97;;;12.50;29.10;;;;;;5073904;28;20195;-74
2022/05/12 03:46:49;;;;;;;2.93;1.40;;;12.40;34.70;;;;;;5072617;28;20738;-74
2022/05/12 03:49:16;;;;;;;2.97;1.20;;;12.40;18.10;;;;;;5072652;28;20202;-68
2022/05/12 03:51:43;;;;;;;1.20;1.07;;;12.40;30.60;;;;;;5073272;28;20213;-67
2022/05/12 03:54:11;;;;;;;2.57;1.30;;;12.40;1.00;;;;;;5071304;28;20605;-67
2022/05/12 03:56:39;;;;;;;1.63;1.10;;;12.30;1.00;;;;;;5073771;28;20210;-68
2022/05/12 03:59:06;;;;;;;2.17;1.00;;;12.30;14.10;;;;;;5071300;28;20209;-67
2022/05/12 04:01:34;;;;;;;1.60;1.20;;;12.30;21.80;;;;;;5073730;28;20665;-68
2022/05/12 04:04:01;;;;;;;3.87;1.50;;;12.40;1.00;;;;;;5072509;28;20214;-68
2022/05/12 04:06:28;;;;;;;3.70;1.10;;;13.30;1.00;;;;;;5057642;28;20222;-67
2022/05/12 04:08:55;;;;;;;3.87;1.13;;;13.70;1.00;;;;;;5053231;28;20207;-67
2022/05/12 04:11:22;;;;;;;4.00;1.13;;;14.10;1.00;;;;;;5072872;28;20194;-68
2022/05/12 04:13:50;;;;;;;2.43;1.13;;;13.60;1.00;;;;;;5068022;28;20218;-68
2022/05/12 04:16:18;;;;;;;1.87;1.13;;;13.20;1.00;;;;;;5073132;28;20194;-67
2022/05/12 04:18:45;;;;;;;1.97;1.03;;;13.20;1.00;;;;;;5069554;28;20217;-68
2022/05/12 04:21:12;;;;;;;2.83;1.20;;;13.20;1.00;;;;;;5071738;28;20226;-67
2022/05/12 04:23:39;;;;;;;2.00;1.00;;;13.40;1.00;;;;;;5072143;28;20648;-67
2022/05/12 04:26:06;;;;;;;5.33;1.40;;;13.70;1.00;;;;;;5073141;28;20668;-68
2022/05/12 04:28:33;;;;;;;1.03;0.77;;;14.20;99.90;;;;;;5068775;28;20202;-67
2022/05/12 04:31:01;;;;;;;2.73;1.47;;;13.90;1.00;;;;;;5072080;28;20194;-68
2022/05/12 04:36:13;;;;;;;2.47;1.00;;;13.30;1.00;;;;;;5072689;28;20209;-67
2022/05/12 04:38:40;;;;;;;1.63;1.30;;;13.50;1.00;;;;;;5072104;28;20721;-68
2022/05/12 04:41:08;;;;;;;4.27;2.90;;;13.60;1.00;;;;;;5072514;28;20218;-68
2022/05/12 04:43:35;;;;;;;3.07;1.30;;;14.30;1.00;;;;;;5055630;28;20211;-67
2022/05/12 04:46:03;;;;;;;2.00;1.00;;;14.50;1.00;;;;;;5071744;28;20209;-68
2022/05/12 04:48:31;;;;;;;4.03;1.20;;;14.70;99.90;;;;;;5071935;28;20672;-68
2022/05/12 04:50:59;;;;;;;2.53;1.13;;;14.20;1.00;;;;;;5051505;28;20206;-67
2022/05/12 04:53:26;;;;;;;3.00;1.30;;;13.80;1.00;;;;;;5052018;28;20688;-67
2022/05/12 04:55:52;;;;;;;3.30;1.07;;;13.40;1.00;;;;;;5071459;28;20240;-68
2022/05/12 04:58:19;;;;;;;1.73;1.13;;;14.00;1.00;;;;;;5071673;28;20221;-68
2022/05/12 05:00:46;;;;;;;2.50;0.90;;;14.10;1.00;;;;;;5071184;28;20226;-68
2022/05/12 05:03:15;;;;;;;2.47;1.03;;;14.90;99.90;;;;;;5070942;28;20202;-68
2022/05/12 05:05:42;;;;;;;1.73;0.93;;;15.30;99.90;;;;;;5063947;28;20281;-68
2022/05/12 05:08:13;;;;;;;3.60;1.00;;;14.30;7.90;;;;;;5052252;28;20214;-68
2022/05/12 05:10:40;;;;;;;1.17;1.00;;;13.70;1.00;;;;;;5066632;28;20198;-67
2022/05/12 05:13:07;;;;;;;2.03;0.97;;;13.50;1.00;;;;;;5072614;28;20668;-68
2022/05/12 05:15:34;;;;;;;2.57;1.00;;;13.40;1.00;;;;;;5065456;28;20206;-67
2022/05/12 05:18:02;;;;;;;2.73;0.90;;;13.20;1.00;;;;;;5070527;28;20198;-68
2022/05/12 05:20:31;;;;;;;1.50;0.73;;;13.20;1.00;;;;;;5070980;28;20438;-68
2022/05/12 05:22:58;;;;;;;5.07;1.17;;;13.20;1.00;;;;;;5071478;28;20198;-68
2022/05/12 05:25:25;;;;;;;4.17;0.90;;;13.20;1.00;;;;;;5068884;28;20210;-68
2022/05/12 05:27:54;;;;;;;1.50;0.90;;;13.20;1.00;;;;;;5071777;28;20202;-68
2022/05/12 05:30:23;;;;;;;1.40;0.90;;;13.20;1.00;;;;;;5071908;28;20652;-68
2022/05/12 05:32:51;;;;;;;2.80;0.90;;;13.20;1.00;;;;;;5071795;28;20205;-68
2022/05/12 05:35:18;;;;;;;2.23;1.00;;;13.20;1.00;;;;;;5071375;28;20578;-67
2022/05/12 05:37:48;;;;;;;4.27;1.40;;;13.10;1.00;;;;;;5071608;28;20209;-68
2022/05/12 05:40:18;;;;;;;2.43;1.00;;;13.30;1.00;;;;;;5070706;28;20680;-68
2022/05/12 05:42:46;;;;;;;2.67;1.03;;;13.30;1.00;;;;;;5071910;28;20305;-68
2022/05/12 05:45:17;;;;;;;2.07;1.03;;;13.20;1.00;;;;;;5071413;28;20570;-68
2022/05/12 05:47:46;;;;;;;3.97;0.93;;;13.40;1.00;;;;;;5071672;28;20212;-68
2022/05/12 05:50:15;;;;;;;1.57;1.10;;;13.30;1.00;;;;;;5068649;28;20194;-68
2022/05/12 05:55:27;;;;;;;2.40;1.00;;;13.30;1.00;;;;;;5071718;28;20947;-67
2022/05/12 05:57:54;;;;;;;2.77;1.20;;;13.40;1.00;;;;;;5071265;28;20232;-68
2022/05/12 06:00:21;;;;;;;0.83;0.80;;;13.50;1.00;;;;;;5065139;28;20587;-68
2022/05/12 06:02:48;;;;;;;1.10;1.00;;;13.70;1.00;;;;;;5056253;28;20206;-68
2022/05/12 06:05:17;;;;;;;2.47;1.00;;;13.60;1.00;;;;;;5064623;28;20664;-68
2022/05/12 06:07:45;;;;;;;1.87;1.10;;;14.60;1.00;;;;;;5055079;28;20199;-68
2022/05/12 06:10:12;;;;;;;5.10;2.47;;;13.80;99.90;;;;;;5058224;28;20209;-68
2022/05/12 06:12:41;;;;;;;2.20;1.00;;;13.80;1.00;;;;;;5080220;28;20206;-68
2022/05/12 06:15:10;;;;;;;2.40;1.13;;;14.00;1.00;;;;;;5067804;28;20203;-68
2022/05/12 06:17:37;;;;;;;1.80;1.30;;;13.80;1.00;;;;;;5070798;28;20206;-68
2022/05/12 06:20:06;;;;;;;1.70;1.10;;;13.60;99.90;;;;;;5064635;28;20216;-68
2022/05/12 06:22:34;;;;;;;3.80;1.10;;;13.70;1.00;;;;;;5074840;28;20198;-68
2022/05/12 06:25:00;;;;;;;1.90;1.13;;;13.70;1.00;;;;;;5074996;28;20202;-68
2022/05/12 06:27:27;;;;;;;2.27;1.43;;;13.80;1.00;;;;;;5075280;28;20202;-68
2022/05/12 06:29:56;;;;;;;2.47;1.50;;;13.90;1.00;;;;;;5063998;28;20589;-68
2022/05/12 06:32:23;;;;;;;3.50;1.70;;;14.00;1.00;;;;;;5074841;28;20275;-68
2022/05/12 06:34:50;;;;;;;5.53;1.57;;;14.00;1.00;;;;;;5074361;28;20544;-68
2022/05/12 06:37:19;;;;;;;1.77;1.50;;;14.10;1.00;;;;;;5075124;28;20203;-68
2022/05/12 06:39:46;;;;;;;3.30;1.27;;;14.00;1.00;;;;;;5062200;28;20215;-68
2022/05/12 06:42:13;;;;;;;3.20;1.30;;;14.30;1.00;;;;;;5065527;28;20584;-68
2022/05/12 06:44:41;;;;;;;4.07;1.43;;;14.40;99.90;;;;;;5062772;28;20264;-68
2022/05/12 06:47:10;;;;;;;3.10;1.90;;;14.20;1.00;;;;;;5065240;28;20204;-68
2022/05/12 06:49:37;;;;;;;2.77;1.63;;;14.10;99.90;;;;;;5064326;28;20221;-68
2022/05/12 06:52:06;;;;;;;3.87;1.60;;;14.10;1.00;;;;;;5055792;28;20202;-68
2022/05/12 06:54:33;;;;;;;5.43;2.00;;;14.30;1.00;;;;;;5072320;28;20210;-68
2022/05/12 06:57:00;;;;;;;2.67;1.50;;;14.30;1.00;;;;;;5072324;28;20216;-68
2022/05/12 06:59:27;;;;;;;2.70;1.73;;;14.30;1.00;;;;;;5067547;28;20202;-68
2022/05/12 07:01:53;;;;;;;2.77;1.67;;;14.30;1.00;;;;;;5069867;28;20214;-68
2022/05/12 07:04:24;;;;;;;4.80;2.10;;;14.40;99.90;;;;;;5070214;28;20273;-68
2022/05/12 07:06:51;;;;;;;5.47;2.00;;;14.50;99.90;;;;;;5070354;28;20194;-68
2022/05/12 07:09:19;;;;;;;4.77;2.07;;;14.50;99.90;;;;;;5067723;28;20217;-68
2022/05/12 07:11:47;;;;;;;4.30;2.00;;;14.50;1.00;;;;;;5068909;28;20263;-68
2022/05/12 07:14:15;;;;;;;2.20;2.00;;;14.40;1.00;;;;;;5063281;28;20215;-68
2022/05/12 07:16:42;;;;;;;3.73;2.30;;;14.40;99.90;;;;;;5049916;28;20215;-68
2022/05/12 07:19:11;;;;;;;3.40;2.10;;;14.60;99.90;;;;;;5055769;28;20214;-68
2022/05/12 07:27:08;;;;;;;6.60;2.60;;;14.70;99.90;;;;;;5049843;28;20237;-68
2022/05/12 07:29:35;;;;;;;3.60;2.20;;;14.70;1.00;;;;;;5050055;28;20483;-68
2022/05/12 07:32:02;;;;;;;8.97;2.47;;;14.80;99.90;;;;;;5060923;28;20765;-68
2022/05/12 07:34:29;;;;;;;3.87;1.67;;;15.00;91.30;;;;;;5060427;28;20215;-68
2022/05/12 07:36:57;;;;;;;5.70;2.37;;;14.90;1.00;;;;;;5050241;28;20237;-68
2022/05/12 07:39:28;;;;;;;3.37;1.90;;;14.90;1.00;;;;;;5050098;28;20700;-68
2022/05/12 07:41:56;;;;;;;4.17;1.77;;;15.00;99.90;;;;;;5050103;28;20231;-68
2022/05/12 07:44:31;;;;;;;4.23;2.03;;;15.00;17.50;;;;;;5049456;28;20218;-68
2022/05/12 07:46:59;;;;;;;6.87;1.87;;;15.20;1.00;;;;;;5049709;28;20232;-68
2022/05/12 07:49:28;;;;;;;5.67;1.90;;;15.50;1.00;;;;;;5050079;28;20359;-68
2022/05/12 07:51:56;;;;;;;4.97;1.73;;;15.20;1.00;;;;;;5049553;28;20211;-68
2022/05/12 07:54:23;;;;;;;4.93;1.60;;;15.30;1.00;;;;;;5053244;28;20674;-68
2022/05/12 07:56:50;;;;;;;7.17;1.80;;;15.40;99.90;;;;;;5073225;28;20203;-68
2022/05/12 07:59:17;;;;;;;3.10;1.80;;;15.30;1.00;;;;;;5065408;28;20209;-68
2022/05/12 08:01:44;;;;;;;5.40;1.63;;;15.30;1.00;;;;;;5053715;28;20226;-68
2022/05/12 08:04:12;;;;;;;7.13;1.77;;;15.40;1.00;;;;;;5069879;28;20198;-68
2022/05/12 08:06:39;;;;;;;4.17;1.70;;;15.60;1.00;;;;;;5073572;28;20587;-68
2022/05/12 08:09:08;;;;;;;4.57;1.40;;;15.50;1.00;;;;;;5068188;28;20226;-68
2022/05/12 08:11:35;;;;;;;5.20;1.60;;;15.60;1.00;;;;;;5067925;28;20194;-68
2022/05/12 08:14:02;;;;;;;4.03;1.47;;;15.80;23.90;;;;;;5064700;28;20203;-68
2022/05/12 08:16:29;;;;;;;3.47;1.77;;;16.00;1.00;;;;;;5052770;28;20206;-67
2022/05/12 08:18:55;;;;;;;4.90;2.40;;;15.90;1.00;;;;;;5061373;28;20198;-67
2022/05/12 08:21:24;;;;;;;2.43;1.57;;;16.00;1.00;;;;;;5072393;28;20294;-68
2022/05/12 08:23:52;;;;;;;3.03;1.90;;;15.90;1.00;;;;;;5071912;28;20190;-68
2022/05/12 08:26:20;;;;;;;3.90;1.87;;;15.70;1.00;;;;;;5065906;28;20198;-68
2022/05/12 08:28:50;;;;;;;4.80;1.80;;;15.80;99.90;;;;;;5072989;28;20570;-68
2022/05/12 08:31:17;;;;;;;4.23;1.70;;;16.20;1.00;;;;;;5073198;28;20198;-68
2022/05/12 08:33:44;;;;;;;3.87;1.70;;;16.40;1.00;;;;;;5068931;28;20211;-68
2022/05/12 08:36:11;;;;;;;3.00;1.40;;;16.50;1.00;;;;;;5069250;28;20660;-68
2022/05/12 08:38:40;;;;;;;4.43;1.60;;;16.40;99.90;;;;;;5069876;28;20224;-68
2022/05/12 08:41:18;;;;;;;4.10;1.73;;;16.20;1.00;;;;;;5051881;28;20218;-68
2022/05/12 08:43:54;;;;;;;2.60;1.27;;;16.40;99.90;;;;;;5058452;28;20225;-68
2022/05/12 08:46:24;;;;;;;3.22;1.25;;;16.40;1.00;;;;;;5051536;28;20855;-68
2022/05/12 08:49:00;;;;;;;1.52;1.35;;;16.70;1.00;;;;;;5054302;28;20668;-68
2022/05/12 08:51:30;;;;;;;2.28;1.45;;;16.90;72.40;;;;;;5071947;28;20205;-68
2022/05/12 08:54:02;;;;;;;2.92;1.17;;;16.70;99.90;;;;;;5070834;28;20209;-68
2022/05/12 08:56:30;;;;;;;4.63;1.33;;;17.00;99.90;;;;;;5072151;28;20704;-68
2022/05/12 08:59:00;;;;;;;3.88;1.42;;;16.70;1.00;;;;;;5067745;28;20206;-68
2022/05/12 09:01:36;;;;;;;1.90;1.05;;;16.60;99.90;;;;;;5051465;28;20561;-68
2022/05/12 09:04:41;;;;;;;2.35;1.20;;;16.80;1.00;;;;;;5051613;28;20237;-68
2022/05/12 09:07:14;;;;;;;2.25;1.10;;;17.40;99.90;;;;;;5010675;28;20296;-68
2022/05/12 09:09:48;;;;;;;4.28;0.90;;;18.50;1.00;;;;;;5009379;28;20529;-68
2022/05/12 09:12:27;;;;;;;2.30;1.10;;;17.90;99.90;;;;;;5032834;28;20582;-68
2022/05/12 09:14:59;;;;;;;2.17;1.25;;;17.70;99.90;;;;;;5052168;28;20207;-68
2022/05/12 09:17:33;;;;;;;4.35;1.00;;;17.90;1.00;;;;;;5051842;28;20203;-68
2022/05/12 09:20:01;;;;;;;1.38;1.10;;;18.50;99.90;;;;;;5052133;28;20207;-68
2022/05/12 09:22:30;;;;;;;2.67;1.38;;;18.60;1.00;;;;;;5052373;28;20277;-68
2022/05/12 09:24:58;;;;;;;2.65;1.20;;;18.90;1.00;;;;;;5051344;28;20207;-68
2022/05/12 09:27:32;;;;;;;3.65;1.40;;;19.20;1.00;;;;;;5052493;28;20203;-68
2022/05/12 09:30:02;;;;;;;2.95;1.08;;;19.30;1.00;;;;;;5051080;28;20210;-68
2022/05/12 09:32:31;;;;;;;3.45;0.95;;;19.50;1.00;;;;;;5052213;28;20653;-68
2022/05/12 09:35:12;;;;;;;3.55;1.05;;;19.50;1.00;;;;;;5051903;28;20260;-68
2022/05/12 09:37:41;;;;;;;1.48;1.20;;;19.70;1.00;;;;;;5051514;28;20206;-68
2022/05/12 09:40:19;;;;;;;2.10;0.90;;;19.10;1.00;;;;;;5052004;28;20655;-68
2022/05/12 09:42:48;;;;;;;2.28;1.00;;;18.70;1.00;;;;;;5051536;28;20225;-68
2022/05/12 09:45:27;;;;;;;4.07;1.08;;;18.60;1.00;;;;;;5051474;28;20218;-68
2022/05/12 09:48:09;;;;;;;3.92;1.10;;;19.10;1.00;;;;;;5051896;28;20206;-68
2022/05/12 09:50:36;;;;;;;3.53;1.20;;;19.60;1.00;;;;;;5052083;28;20671;-68
2022/05/12 09:53:06;;;;;;;2.72;0.90;;;19.90;1.00;;;;;;5052953;28;20202;-68
2022/05/12 09:55:36;;;;;;;3.65;0.98;;;19.40;1.00;;;;;;5056269;28;20606;-68
2022/05/12 09:58:07;;;;;;;2.65;0.95;;;19.10;99.90;;;;;;5055143;28;20213;-68
2022/05/12 10:00:39;;;;;;;4.30;1.40;;;19.10;1.00;;;;;;5055816;28;20198;-68
2022/05/12 10:09:04;;;;;;;4.95;1.13;;;19.90;99.90;;;;;;5072445;28;20247;-68
2022/05/12 10:11:35;;;;;;;3.33;1.23;;;20.50;99.90;;;;;;5057043;28;20198;-68
2022/05/12 10:14:05;;;;;;;2.15;1.00;;;20.50;99.90;;;;;;5064721;28;20209;-68
2022/05/12 10:16:35;;;;;;;1.25;0.90;;;20.50;99.90;;;;;;5055717;28;20215;-68
2022/05/12 10:19:06;;;;;;;1.48;1.10;;;20.90;99.90;;;;;;5055013;28;20215;-68
2022/05/12 10:21:39;;;;;;;1.50;0.90;;;21.60;99.90;;;;;;5072424;28;20229;-75
2022/05/12 10:24:15;;;;;;;1.10;0.90;;;21.10;99.90;;;;;;5074571;28;20190;-68
2022/05/12 10:26:47;;;;;;;2.10;0.80;;;20.30;99.90;;;;;;5071326;28;20209;-68
2022/05/12 10:29:28;;;;;;;1.98;1.20;;;20.20;99.90;;;;;;5071305;28;20198;-68
2022/05/12 10:32:04;;;;;;;3.45;1.23;;;20.30;99.90;;;;;;5074939;28;20197;-68
2022/05/12 10:34:41;;;;;;;4.13;1.00;;;20.30;99.90;;;;;;5077777;28;20205;-68
2022/05/12 10:37:25;;;;;;;3.58;1.02;;;20.90;99.90;;;;;;5065100;28;20208;-68
2022/05/12 10:40:02;;;;;;;1.38;1.27;;;20.70;99.90;;;;;;5054389;28;20207;-68
2022/05/12 10:42:38;;;;;;;2.63;1.38;;;20.30;99.90;;;;;;5056167;28;20561;-68
2022/05/12 10:45:19;;;;;;;1.75;0.95;;;19.60;99.90;;;;;;5054567;28;20211;-68
2022/05/12 10:48:13;;;;;;;1.85;1.00;;;20.60;99.90;;;;;;5064987;28;20201;-68
2022/05/12 10:50:51;;;;;;;2.97;1.25;;;20.20;99.90;;;;;;5048114;28;20210;-68
2022/05/12 10:53:28;;;;;;;4.60;1.08;;;19.80;99.90;;;;;;5072438;28;20198;-68
2022/05/12 10:56:08;;;;;;;2.47;1.02;;;19.80;99.90;;;;;;5074294;28;20292;-68
2022/05/12 10:58:39;;;;;;;2.55;1.20;;;19.90;99.90;;;;;;5072417;28;20202;-68
2022/05/12 11:01:13;;;;;;;2.00;0.80;;;20.10;99.90;;;;;;5073810;28;20267;-68
2022/05/12 11:03:48;;;;;;;3.47;1.08;;;20.40;99.90;;;;;;5072454;28;20275;-68
2022/05/12 11:06:19;;;;;;;3.22;1.30;;;20.90;99.90;;;;;;5063811;28;20204;-68
2022/05/12 11:08:50;;;;;;;1.90;0.60;;;21.40;99.90;;;;;;5073909;28;20206;-68
2022/05/12 11:11:20;;;;;;;1.73;0.52;;;21.30;99.90;;;;;;5074558;28;20259;-68
2022/05/12 11:13:52;;;;;;;1.75;1.13;;;21.50;99.90;;;;;;5069599;28;20206;-68
2022/05/12 11:16:23;;;;;;;2.65;0.80;;;22.00;99.90;;;;;;5062411;28;20203;-68
2022/05/12 11:18:58;;;;;;;2.53;0.90;;;22.00;99.90;;;;;;5072960;28;20199;-68
2022/05/12 11:21:29;;;;;;;2.22;0.90;;;22.00;99.90;;;;;;5074434;28;20205;-68
2022/05/12 11:24:30;;;;;;;0.88;0.73;;;22.50;99.90;;;;;;5073513;28;20198;-68
2022/05/12 11:27:10;;;;;;;3.08;1.08;;;21.60;99.90;;;;;;5066116;28;20241;-68
2022/05/12 11:29:50;;;;;;;1.88;0.98;;;22.30;99.90;;;;;;5073533;28;20555;-68
2022/05/12 11:32:34;;;;;;;2.33;0.88;;;22.70;99.90;;;;;;5073566;28;20554;-68
2022/05/12 11:35:06;;;;;;;0.70;0.70;;;22.30;99.90;;;;;;5073084;28;20574;-68
2022/05/12 11:37:36;;;;;;;0.80;0.80;;;22.40;99.90;;;;;;5073951;28;20212;-68
2022/05/12 11:40:08;;;;;;;1.88;0.95;;;23.10;99.90;;;;;;5064937;28;20203;-68
2022/05/12 11:45:50;;;;;;;2.35;1.25;;;21.30;99.90;;;;;;5014560;28;20342;-68
2022/05/12 11:48:30;;;;;;;1.10;0.77;;;21.60;99.90;;;;;;5065383;28;20217;-68
2022/05/12 11:51:18;;;;;;;1.40;0.88;;;21.60;99.90;;;;;;5063038;28;20209;-68
2022/05/12 11:53:58;;;;;;;1.55;1.20;;;20.80;99.90;;;;;;5072798;28;20634;-68
2022/05/12 11:56:45;;;;;;;2.88;1.00;;;20.50;99.90;;;;;;5053980;28;20203;-68
2022/05/12 11:59:46;;;;;;;2.17;1.02;;;20.80;99.90;;;;;;5054725;28;20649;-68
2022/05/12 12:02:45;;;;;;;1.08;0.95;;;20.60;99.90;;;;;;5069718;28;20240;-68
2022/05/12 12:05:38;;;;;;;4.05;1.67;;;20.40;99.90;;;;;;5073045;28;20202;-68
2022/05/12 12:08:09;;;;;;;3.97;1.48;;;20.90;99.90;;;;;;5067021;28;20203;-68
2022/05/12 12:10:38;;;;;;;1.85;1.30;;;20.90;99.90;;;;;;5064238;28;20671;-68
2022/05/12 12:13:28;;;;;;;1.42;1.00;;;21.70;99.90;;;;;;5072014;28;20201;-68
2022/05/12 12:16:06;;;;;;;1.58;1.15;;;21.90;99.90;;;;;;5052033;28;20203;-68
2022/05/12 12:18:56;;;;;;;3.08;1.30;;;21.80;99.90;;;;;;5068147;28;20621;-68
2022/05/12 12:22:15;;;;;;;3.75;1.48;;;21.10;99.90;;;;;;5053293;28;20623;-68
2022/05/12 12:25:00;;;;;;;2.67;1.55;;;21.60;99.90;;;;;;5072174;28;20664;-68
2022/05/12 12:28:12;;;;;;;2.00;1.63;;;21.70;99.90;;;;;;5072270;28;20202;-68
2022/05/12 12:31:08;;;;;;;4.53;2.58;;;21.70;99.90;;;;;;5070053;28;20268;-68
2022/05/12 12:34:12;;;;;;;5.25;1.42;;;22.10;99.90;;;;;;5072044;28;20206;-68
2022/05/12 12:37:06;;;;;;;3.67;1.70;;;21.70;99.90;;;;;;5072823;28;20711;-68
2022/05/12 12:39:49;;;;;;;2.75;1.58;;;21.60;99.90;;;;;;5067996;28;20198;-69
2022/05/12 12:42:44;;;;;;;1.95;1.30;;;21.40;99.90;;;;;;5069522;28;20305;-68
2022/05/12 12:45:15;;;;;;;3.80;1.40;;;22.10;99.90;;;;;;5071913;28;20198;-68
2022/05/12 12:47:49;;;;;;;3.63;1.45;;;22.20;99.90;;;;;;5071120;28;20195;-68
2022/05/12 12:50:28;;;;;;;2.47;1.60;;;22.00;99.90;;;;;;5058062;28;20206;-68
2022/05/12 12:52:56;;;;;;;2.55;1.23;;;22.30;99.90;;;;;;5071977;28;20221;-69
2022/05/12 12:58:14;;;;;;;2.25;1.30;;;22.50;99.90;;;;;;5072157;28;20726;-68
2022/05/12 13:00:42;;;;;;;3.10;1.67;;;22.50;99.90;;;;;;5053851;28;20211;-68
2022/05/12 13:03:17;;;;;;;5.80;1.83;;;22.00;99.90;;;;;;5052062;28;20226;-68
2022/05/12 13:05:44;;;;;;;6.22;1.60;;;21.70;99.90;;;;;;5055437;28;20224;-68
2022/05/12 13:08:23;;;;;;;3.42;1.30;;;21.50;99.90;;;;;;5071753;28;20535;-68
2022/05/12 13:10:58;;;;;;;3.47;1.63;;;21.60;99.90;;;;;;5066756;28;20593;-68
2022/05/12 13:13:26;;;;;;;3.38;1.30;;;21.40;99.90;;;;;;5071897;28;20327;-68
2022/05/12 13:15:57;;;;;;;3.08;1.50;;;21.20;99.90;;;;;;5060090;28;20207;-68
2022/05/12 13:18:30;;;;;;;3.47;1.42;;;21.10;99.90;;;;;;5052787;28;20233;-68
2022/05/12 13:20:57;;;;;;;3.63;1.58;;;21.00;99.90;;;;;;5058709;28;20549;-68
2022/05/12 13:23:27;;;;;;;6.80;1.77;;;20.80;99.90;;;;;;5072731;28;20229;-68
2022/05/12 13:25:56;;;;;;;3.50;1.80;;;21.10;99.90;;;;;;5071874;28;20204;-68
2022/05/12 13:28:25;;;;;;;3.58;1.92;;;21.60;99.90;;;;;;5065386;28;20218;-68
2022/05/12 13:31:11;;;;;;;3.45;1.90;;;21.80;99.90;;;;;;5063240;28;20209;-68
2022/05/12 13:33:38;;;;;;;5.15;1.95;;;21.90;99.90;;;;;;5071118;28;20200;-68
2022/05/12 13:36:24;;;;;;;2.55;2.00;;;22.20;99.90;;;;;;5072247;28;20210;-73